sensor_id;sensor_type;location;lat;lon;timestamp;P1;durP1;ratioP1;P2;durP2;ratioP2
47153;SDS011;32907;41.412;2.164;2023-03-05T00:01:27;22.05;;;17.08;;
47153;SDS011;32907;41.412;2.164;2023-03-05T00:03:59;20.73;;;16.73;;
47153;SDS011;32907;41.412;2.164;2023-03-05T00:06:29;20.33;;;16.58;;
47153;SDS011;32907;41.412;2.164;2023-03-05T00:08:58;18.83;;;16.02;;
47153;SDS011;32907;41.412;2.164;2023-03-05T00:11:26;18.45;;;16.42;;
47153;SDS011;32907;41.412;2.164;2023-03-05T00:14:00;21.40;;;16.73;;
47153;SDS011;32907;41.412;2.164;2023-03-05T00:16:30;20.58;;;16.25;;
47153;SDS011;32907;41.412;2.164;2023-03-05T00:18:59;21.52;;;16.70;;
47153;SDS011;32907;41.412;2.164;2023-03-05T00:21:38;20.70;;;17.02;;
47153;SDS011;32907;41.412;2.164;2023-03-05T00:24:11;20.48;;;16.95;;
47153;SDS011;32907;41.412;2.164;2023-03-05T00:26:43;22.30;;;17.27;;
47153;SDS011;32907;41.412;2.164;2023-03-05T00:29:13;19.95;;;17.05;;
47153;SDS011;32907;41.412;2.164;2023-03-05T00:31:44;22.65;;;16.95;;
47153;SDS011;32907;41.412;2.164;2023-03-05T00:34:13;26.08;;;18.20;;
47153;SDS011;32907;41.412;2.164;2023-03-05T00:36:44;23.48;;;18.77;;
47153;SDS011;32907;41.412;2.164;2023-03-05T00:39:13;24.38;;;18.80;;
47153;SDS011;32907;41.412;2.164;2023-03-05T00:41:41;25.40;;;19.17;;
47153;SDS011;32907;41.412;2.164;2023-03-05T00:44:10;28.08;;;22.20;;
47153;SDS011;32907;41.412;2.164;2023-03-05T00:46:39;27.13;;;21.27;;
47153;SDS011;32907;41.412;2.164;2023-03-05T00:49:07;24.70;;;19.20;;
47153;SDS011;32907;41.412;2.164;2023-03-05T00:51:35;24.77;;;19.02;;
47153;SDS011;32907;41.412;2.164;2023-03-05T00:54:03;24.95;;;20.67;;
47153;SDS011;32907;41.412;2.164;2023-03-05T00:56:31;26.35;;;20.75;;
47153;SDS011;32907;41.412;2.164;2023-03-05T00:58:59;21.63;;;18.80;;
47153;SDS011;32907;41.412;2.164;2023-03-05T01:01:27;23.08;;;17.75;;
47153;SDS011;32907;41.412;2.164;2023-03-05T01:03:55;23.02;;;18.48;;
47153;SDS011;32907;41.412;2.164;2023-03-05T01:06:24;21.05;;;17.50;;
47153;SDS011;32907;41.412;2.164;2023-03-05T01:08:53;21.40;;;17.50;;
47153;SDS011;32907;41.412;2.164;2023-03-05T01:11:23;19.13;;;16.27;;
47153;SDS011;32907;41.412;2.164;2023-03-05T01:13:51;20.38;;;15.93;;
47153;SDS011;32907;41.412;2.164;2023-03-05T01:16:19;18.05;;;14.60;;
47153;SDS011;32907;41.412;2.164;2023-03-05T01:18:47;16.80;;;13.93;;
47153;SDS011;32907;41.412;2.164;2023-03-05T01:21:14;17.35;;;14.15;;
47153;SDS011;32907;41.412;2.164;2023-03-05T01:23:42;17.92;;;13.48;;
47153;SDS011;32907;41.412;2.164;2023-03-05T01:26:10;17.73;;;14.55;;
47153;SDS011;32907;41.412;2.164;2023-03-05T01:28:38;20.08;;;14.93;;
47153;SDS011;32907;41.412;2.164;2023-03-05T01:31:10;17.13;;;13.30;;
47153;SDS011;32907;41.412;2.164;2023-03-05T01:33:38;17.30;;;12.75;;
47153;SDS011;32907;41.412;2.164;2023-03-05T01:36:07;15.63;;;12.30;;
47153;SDS011;32907;41.412;2.164;2023-03-05T01:38:38;17.58;;;13.73;;
47153;SDS011;32907;41.412;2.164;2023-03-05T01:41:07;17.42;;;13.15;;
47153;SDS011;32907;41.412;2.164;2023-03-05T01:43:36;18.10;;;13.88;;
47153;SDS011;32907;41.412;2.164;2023-03-05T01:48:55;19.27;;;13.80;;
47153;SDS011;32907;41.412;2.164;2023-03-05T01:51:26;16.00;;;13.27;;
47153;SDS011;32907;41.412;2.164;2023-03-05T01:53:57;14.93;;;12.60;;
47153;SDS011;32907;41.412;2.164;2023-03-05T01:56:27;14.75;;;12.40;;
47153;SDS011;32907;41.412;2.164;2023-03-05T01:58:56;16.30;;;13.07;;
47153;SDS011;32907;41.412;2.164;2023-03-05T02:01:31;16.63;;;13.27;;
47153;SDS011;32907;41.412;2.164;2023-03-05T02:04:05;18.48;;;13.90;;
47153;SDS011;32907;41.412;2.164;2023-03-05T02:06:36;16.42;;;12.30;;
47153;SDS011;32907;41.412;2.164;2023-03-05T02:09:05;18.65;;;13.02;;
47153;SDS011;32907;41.412;2.164;2023-03-05T02:11:33;14.77;;;12.38;;
47153;SDS011;32907;41.412;2.164;2023-03-05T02:14:02;17.20;;;13.07;;
47153;SDS011;32907;41.412;2.164;2023-03-05T02:16:33;15.80;;;12.25;;
47153;SDS011;32907;41.412;2.164;2023-03-05T02:19:04;17.17;;;13.48;;
47153;SDS011;32907;41.412;2.164;2023-03-05T02:21:41;14.80;;;12.20;;
47153;SDS011;32907;41.412;2.164;2023-03-05T02:24:12;15.35;;;12.75;;
47153;SDS011;32907;41.412;2.164;2023-03-05T02:26:45;14.13;;;12.40;;
47153;SDS011;32907;41.412;2.164;2023-03-05T02:29:16;19.38;;;12.88;;
47153;SDS011;32907;41.412;2.164;2023-03-05T02:31:46;16.35;;;12.90;;
47153;SDS011;32907;41.412;2.164;2023-03-05T02:34:14;18.60;;;13.57;;
47153;SDS011;32907;41.412;2.164;2023-03-05T02:36:42;20.90;;;13.77;;
47153;SDS011;32907;41.412;2.164;2023-03-05T02:39:11;17.13;;;13.35;;
47153;SDS011;32907;41.412;2.164;2023-03-05T02:41:39;17.80;;;12.75;;
47153;SDS011;32907;41.412;2.164;2023-03-05T02:44:07;16.17;;;12.82;;
47153;SDS011;32907;41.412;2.164;2023-03-05T02:46:35;16.42;;;14.10;;
47153;SDS011;32907;41.412;2.164;2023-03-05T02:49:04;16.60;;;13.38;;
47153;SDS011;32907;41.412;2.164;2023-03-05T02:51:31;19.17;;;13.30;;
47153;SDS011;32907;41.412;2.164;2023-03-05T02:53:59;17.33;;;13.55;;
47153;SDS011;32907;41.412;2.164;2023-03-05T02:56:28;16.50;;;13.27;;
47153;SDS011;32907;41.412;2.164;2023-03-05T02:58:56;16.75;;;12.73;;
47153;SDS011;32907;41.412;2.164;2023-03-05T03:01:24;18.75;;;13.55;;
47153;SDS011;32907;41.412;2.164;2023-03-05T03:03:55;18.27;;;13.75;;
47153;SDS011;32907;41.412;2.164;2023-03-05T03:06:23;17.50;;;13.55;;
47153;SDS011;32907;41.412;2.164;2023-03-05T03:08:50;17.83;;;14.82;;
47153;SDS011;32907;41.412;2.164;2023-03-05T03:11:18;18.15;;;14.35;;
47153;SDS011;32907;41.412;2.164;2023-03-05T03:13:47;18.27;;;14.20;;
47153;SDS011;32907;41.412;2.164;2023-03-05T03:16:15;17.10;;;13.32;;
47153;SDS011;32907;41.412;2.164;2023-03-05T03:18:44;17.10;;;14.70;;
47153;SDS011;32907;41.412;2.164;2023-03-05T03:21:21;17.65;;;14.45;;
47153;SDS011;32907;41.412;2.164;2023-03-05T03:23:51;17.23;;;14.38;;
47153;SDS011;32907;41.412;2.164;2023-03-05T03:26:19;18.98;;;14.27;;
47153;SDS011;32907;41.412;2.164;2023-03-05T03:28:47;19.80;;;14.40;;
47153;SDS011;32907;41.412;2.164;2023-03-05T03:31:15;19.35;;;14.57;;
47153;SDS011;32907;41.412;2.164;2023-03-05T03:33:43;17.75;;;15.07;;
47153;SDS011;32907;41.412;2.164;2023-03-05T03:36:11;18.38;;;14.57;;
47153;SDS011;32907;41.412;2.164;2023-03-05T03:38:39;19.02;;;14.80;;
47153;SDS011;32907;41.412;2.164;2023-03-05T03:41:07;17.27;;;14.70;;
47153;SDS011;32907;41.412;2.164;2023-03-05T03:43:35;16.67;;;14.40;;
47153;SDS011;32907;41.412;2.164;2023-03-05T03:46:04;17.92;;;13.85;;
47153;SDS011;32907;41.412;2.164;2023-03-05T03:48:33;17.50;;;13.50;;
47153;SDS011;32907;41.412;2.164;2023-03-05T03:51:03;18.10;;;13.63;;
47153;SDS011;32907;41.412;2.164;2023-03-05T03:53:31;16.75;;;13.90;;
47153;SDS011;32907;41.412;2.164;2023-03-05T03:55:59;19.38;;;14.63;;
47153;SDS011;32907;41.412;2.164;2023-03-05T03:58:27;19.10;;;14.75;;
47153;SDS011;32907;41.412;2.164;2023-03-05T04:00:55;18.02;;;14.60;;
47153;SDS011;32907;41.412;2.164;2023-03-05T04:03:23;17.02;;;13.85;;
47153;SDS011;32907;41.412;2.164;2023-03-05T04:05:51;16.75;;;13.82;;
47153;SDS011;32907;41.412;2.164;2023-03-05T04:08:19;19.35;;;14.52;;
47153;SDS011;32907;41.412;2.164;2023-03-05T04:10:47;18.30;;;13.93;;
47153;SDS011;32907;41.412;2.164;2023-03-05T04:13:15;20.38;;;14.98;;
47153;SDS011;32907;41.412;2.164;2023-03-05T04:15:43;19.17;;;14.88;;
47153;SDS011;32907;41.412;2.164;2023-03-05T04:18:11;19.85;;;14.65;;
47153;SDS011;32907;41.412;2.164;2023-03-05T04:20:38;18.73;;;14.90;;
47153;SDS011;32907;41.412;2.164;2023-03-05T04:23:06;19.30;;;15.20;;
47153;SDS011;32907;41.412;2.164;2023-03-05T04:25:35;21.17;;;15.27;;
47153;SDS011;32907;41.412;2.164;2023-03-05T04:28:03;18.80;;;15.10;;
47153;SDS011;32907;41.412;2.164;2023-03-05T04:30:31;20.02;;;15.02;;
47153;SDS011;32907;41.412;2.164;2023-03-05T04:32:59;17.77;;;14.43;;
47153;SDS011;32907;41.412;2.164;2023-03-05T04:35:27;18.75;;;15.45;;
47153;SDS011;32907;41.412;2.164;2023-03-05T04:37:55;18.30;;;14.40;;
47153;SDS011;32907;41.412;2.164;2023-03-05T04:40:23;17.98;;;14.63;;
47153;SDS011;32907;41.412;2.164;2023-03-05T04:42:50;16.23;;;13.82;;
47153;SDS011;32907;41.412;2.164;2023-03-05T04:45:18;18.05;;;14.48;;
47153;SDS011;32907;41.412;2.164;2023-03-05T04:47:46;20.02;;;14.82;;
47153;SDS011;32907;41.412;2.164;2023-03-05T04:50:14;18.60;;;14.77;;
47153;SDS011;32907;41.412;2.164;2023-03-05T04:52:43;17.17;;;14.65;;
47153;SDS011;32907;41.412;2.164;2023-03-05T04:55:12;17.42;;;13.88;;
47153;SDS011;32907;41.412;2.164;2023-03-05T04:57:42;23.23;;;16.00;;
47153;SDS011;32907;41.412;2.164;2023-03-05T05:00:12;19.92;;;15.02;;
47153;SDS011;32907;41.412;2.164;2023-03-05T05:02:42;20.33;;;15.68;;
47153;SDS011;32907;41.412;2.164;2023-03-05T05:05:13;18.05;;;14.73;;
47153;SDS011;32907;41.412;2.164;2023-03-05T05:07:43;18.90;;;15.50;;
47153;SDS011;32907;41.412;2.164;2023-03-05T05:10:12;18.25;;;14.57;;
47153;SDS011;32907;41.412;2.164;2023-03-05T05:12:41;18.25;;;14.60;;
47153;SDS011;32907;41.412;2.164;2023-03-05T05:15:10;17.88;;;14.07;;
47153;SDS011;32907;41.412;2.164;2023-03-05T05:17:38;19.45;;;14.88;;
47153;SDS011;32907;41.412;2.164;2023-03-05T05:20:06;17.92;;;14.25;;
47153;SDS011;32907;41.412;2.164;2023-03-05T05:22:37;19.85;;;15.52;;
47153;SDS011;32907;41.412;2.164;2023-03-05T05:25:05;18.42;;;14.45;;
47153;SDS011;32907;41.412;2.164;2023-03-05T05:27:32;18.38;;;15.48;;
47153;SDS011;32907;41.412;2.164;2023-03-05T05:30:01;19.35;;;14.95;;
47153;SDS011;32907;41.412;2.164;2023-03-05T05:32:30;20.40;;;14.73;;
47153;SDS011;32907;41.412;2.164;2023-03-05T05:34:59;18.80;;;15.73;;
47153;SDS011;32907;41.412;2.164;2023-03-05T05:37:27;18.75;;;14.10;;
47153;SDS011;32907;41.412;2.164;2023-03-05T05:39:56;18.40;;;14.23;;
47153;SDS011;32907;41.412;2.164;2023-03-05T05:42:24;20.70;;;16.10;;
47153;SDS011;32907;41.412;2.164;2023-03-05T05:44:52;18.85;;;15.52;;
47153;SDS011;32907;41.412;2.164;2023-03-05T05:47:21;23.35;;;16.67;;
47153;SDS011;32907;41.412;2.164;2023-03-05T05:49:49;19.63;;;15.85;;
47153;SDS011;32907;41.412;2.164;2023-03-05T05:52:17;18.77;;;14.75;;
47153;SDS011;32907;41.412;2.164;2023-03-05T05:54:45;18.83;;;15.18;;
47153;SDS011;32907;41.412;2.164;2023-03-05T05:57:13;19.67;;;15.70;;
47153;SDS011;32907;41.412;2.164;2023-03-05T05:59:41;19.75;;;15.70;;
47153;SDS011;32907;41.412;2.164;2023-03-05T06:02:10;20.08;;;15.98;;
47153;SDS011;32907;41.412;2.164;2023-03-05T06:04:38;21.02;;;16.40;;
47153;SDS011;32907;41.412;2.164;2023-03-05T06:07:06;19.15;;;15.55;;
47153;SDS011;32907;41.412;2.164;2023-03-05T06:09:35;21.95;;;16.15;;
47153;SDS011;32907;41.412;2.164;2023-03-05T06:12:04;21.38;;;16.35;;
47153;SDS011;32907;41.412;2.164;2023-03-05T06:14:33;19.83;;;16.02;;
47153;SDS011;32907;41.412;2.164;2023-03-05T06:17:01;20.45;;;16.35;;
47153;SDS011;32907;41.412;2.164;2023-03-05T06:19:29;22.73;;;17.63;;
47153;SDS011;32907;41.412;2.164;2023-03-05T06:21:57;20.42;;;16.35;;
47153;SDS011;32907;41.412;2.164;2023-03-05T06:24:25;22.98;;;17.63;;
47153;SDS011;32907;41.412;2.164;2023-03-05T06:26:54;19.10;;;16.55;;
47153;SDS011;32907;41.412;2.164;2023-03-05T06:29:22;19.52;;;16.80;;
47153;SDS011;32907;41.412;2.164;2023-03-05T06:31:50;23.75;;;17.38;;
47153;SDS011;32907;41.412;2.164;2023-03-05T06:34:18;23.13;;;17.63;;
47153;SDS011;32907;41.412;2.164;2023-03-05T06:36:46;21.13;;;16.52;;
47153;SDS011;32907;41.412;2.164;2023-03-05T06:39:14;18.17;;;15.60;;
47153;SDS011;32907;41.412;2.164;2023-03-05T06:41:41;19.77;;;15.43;;
47153;SDS011;32907;41.412;2.164;2023-03-05T06:44:10;21.52;;;15.07;;
47153;SDS011;32907;41.412;2.164;2023-03-05T06:46:38;25.30;;;17.13;;
47153;SDS011;32907;41.412;2.164;2023-03-05T06:49:06;25.02;;;16.90;;
47153;SDS011;32907;41.412;2.164;2023-03-05T06:51:36;26.70;;;17.40;;
47153;SDS011;32907;41.412;2.164;2023-03-05T06:54:07;27.10;;;17.63;;
47153;SDS011;32907;41.412;2.164;2023-03-05T06:56:37;25.88;;;17.52;;
47153;SDS011;32907;41.412;2.164;2023-03-05T06:59:08;26.50;;;17.70;;
47153;SDS011;32907;41.412;2.164;2023-03-05T07:01:37;26.20;;;18.65;;
47153;SDS011;32907;41.412;2.164;2023-03-05T07:04:05;25.30;;;18.90;;
47153;SDS011;32907;41.412;2.164;2023-03-05T07:06:34;25.52;;;19.88;;
47153;SDS011;32907;41.412;2.164;2023-03-05T07:09:05;25.40;;;18.10;;
47153;SDS011;32907;41.412;2.164;2023-03-05T07:11:33;27.08;;;18.58;;
47153;SDS011;32907;41.412;2.164;2023-03-05T07:14:02;26.55;;;18.10;;
47153;SDS011;32907;41.412;2.164;2023-03-05T07:16:31;24.63;;;18.83;;
47153;SDS011;32907;41.412;2.164;2023-03-05T07:19:01;23.75;;;17.73;;
47153;SDS011;32907;41.412;2.164;2023-03-05T07:21:31;25.98;;;19.17;;
47153;SDS011;32907;41.412;2.164;2023-03-05T07:24:01;25.48;;;18.02;;
47153;SDS011;32907;41.412;2.164;2023-03-05T07:26:31;27.00;;;19.65;;
47153;SDS011;32907;41.412;2.164;2023-03-05T07:29:02;27.48;;;19.40;;
47153;SDS011;32907;41.412;2.164;2023-03-05T07:31:30;26.85;;;21.50;;
47153;SDS011;32907;41.412;2.164;2023-03-05T07:34:00;27.98;;;20.10;;
47153;SDS011;32907;41.412;2.164;2023-03-05T07:36:29;22.20;;;18.65;;
47153;SDS011;32907;41.412;2.164;2023-03-05T07:38:58;27.92;;;20.05;;
47153;SDS011;32907;41.412;2.164;2023-03-05T07:41:26;25.38;;;18.90;;
47153;SDS011;32907;41.412;2.164;2023-03-05T07:43:54;27.92;;;18.80;;
47153;SDS011;32907;41.412;2.164;2023-03-05T07:46:24;28.10;;;18.98;;
47153;SDS011;32907;41.412;2.164;2023-03-05T07:48:57;22.40;;;18.25;;
47153;SDS011;32907;41.412;2.164;2023-03-05T07:51:26;23.30;;;18.30;;
47153;SDS011;32907;41.412;2.164;2023-03-05T07:53:55;23.60;;;17.88;;
47153;SDS011;32907;41.412;2.164;2023-03-05T07:56:26;22.83;;;18.75;;
47153;SDS011;32907;41.412;2.164;2023-03-05T07:58:58;24.98;;;17.85;;
47153;SDS011;32907;41.412;2.164;2023-03-05T08:01:27;21.30;;;16.00;;
47153;SDS011;32907;41.412;2.164;2023-03-05T08:03:58;19.27;;;15.32;;
47153;SDS011;32907;41.412;2.164;2023-03-05T08:06:26;25.17;;;18.13;;
47153;SDS011;32907;41.412;2.164;2023-03-05T08:08:54;22.58;;;17.40;;
47153;SDS011;32907;41.412;2.164;2023-03-05T08:11:22;20.77;;;16.73;;
47153;SDS011;32907;41.412;2.164;2023-03-05T08:13:50;22.63;;;17.73;;
47153;SDS011;32907;41.412;2.164;2023-03-05T08:16:19;21.13;;;17.67;;
47153;SDS011;32907;41.412;2.164;2023-03-05T08:18:47;26.77;;;18.73;;
47153;SDS011;32907;41.412;2.164;2023-03-05T08:21:16;21.30;;;17.27;;
47153;SDS011;32907;41.412;2.164;2023-03-05T08:23:47;21.42;;;17.52;;
47153;SDS011;32907;41.412;2.164;2023-03-05T08:26:17;23.23;;;16.77;;
47153;SDS011;32907;41.412;2.164;2023-03-05T08:28:47;24.45;;;17.75;;
47153;SDS011;32907;41.412;2.164;2023-03-05T08:31:17;22.85;;;17.48;;
47153;SDS011;32907;41.412;2.164;2023-03-05T08:33:48;24.48;;;17.35;;
47153;SDS011;32907;41.412;2.164;2023-03-05T08:36:20;24.55;;;17.52;;
47153;SDS011;32907;41.412;2.164;2023-03-05T08:38:49;25.88;;;18.25;;
47153;SDS011;32907;41.412;2.164;2023-03-05T08:41:17;27.02;;;18.75;;
47153;SDS011;32907;41.412;2.164;2023-03-05T08:43:46;28.40;;;19.35;;
47153;SDS011;32907;41.412;2.164;2023-03-05T08:46:15;23.60;;;18.20;;
47153;SDS011;32907;41.412;2.164;2023-03-05T08:48:43;21.60;;;17.98;;
47153;SDS011;32907;41.412;2.164;2023-03-05T08:51:12;23.30;;;17.23;;
47153;SDS011;32907;41.412;2.164;2023-03-05T08:53:42;22.40;;;16.98;;
47153;SDS011;32907;41.412;2.164;2023-03-05T08:56:12;24.42;;;18.63;;
47153;SDS011;32907;41.412;2.164;2023-03-05T08:58:40;22.67;;;16.38;;
47153;SDS011;32907;41.412;2.164;2023-03-05T09:01:09;20.65;;;16.48;;
47153;SDS011;32907;41.412;2.164;2023-03-05T09:03:37;19.60;;;15.23;;
47153;SDS011;32907;41.412;2.164;2023-03-05T09:06:07;16.70;;;13.13;;
47153;SDS011;32907;41.412;2.164;2023-03-05T09:08:36;17.15;;;13.60;;
47153;SDS011;32907;41.412;2.164;2023-03-05T09:11:06;18.75;;;13.68;;
47153;SDS011;32907;41.412;2.164;2023-03-05T09:13:35;19.73;;;13.93;;
47153;SDS011;32907;41.412;2.164;2023-03-05T09:16:04;18.65;;;13.45;;
47153;SDS011;32907;41.412;2.164;2023-03-05T09:18:33;16.52;;;12.77;;
47153;SDS011;32907;41.412;2.164;2023-03-05T09:21:03;16.63;;;11.98;;
47153;SDS011;32907;41.412;2.164;2023-03-05T09:23:32;18.60;;;12.77;;
47153;SDS011;32907;41.412;2.164;2023-03-05T09:26:00;16.15;;;11.75;;
47153;SDS011;32907;41.412;2.164;2023-03-05T09:28:32;16.10;;;12.20;;
47153;SDS011;32907;41.412;2.164;2023-03-05T09:31:02;19.75;;;13.07;;
47153;SDS011;32907;41.412;2.164;2023-03-05T09:33:31;18.77;;;13.40;;
47153;SDS011;32907;41.412;2.164;2023-03-05T09:36:01;20.85;;;13.77;;
47153;SDS011;32907;41.412;2.164;2023-03-05T09:38:30;18.17;;;13.50;;
47153;SDS011;32907;41.412;2.164;2023-03-05T09:41:11;17.67;;;12.00;;
47153;SDS011;32907;41.412;2.164;2023-03-05T09:44:00;18.95;;;13.30;;
47153;SDS011;32907;41.412;2.164;2023-03-05T09:49:42;17.50;;;12.77;;
47153;SDS011;32907;41.412;2.164;2023-03-05T09:52:44;15.75;;;12.25;;
47153;SDS011;32907;41.412;2.164;2023-03-05T09:55:25;14.02;;;11.05;;
47153;SDS011;32907;41.412;2.164;2023-03-05T09:58:12;17.98;;;11.93;;
47153;SDS011;32907;41.412;2.164;2023-03-05T10:00:43;15.52;;;11.38;;
47153;SDS011;32907;41.412;2.164;2023-03-05T10:03:18;15.18;;;10.93;;
47153;SDS011;32907;41.412;2.164;2023-03-05T10:06:04;14.93;;;11.75;;
47153;SDS011;32907;41.412;2.164;2023-03-05T10:13:56;19.45;;;13.18;;
47153;SDS011;32907;41.412;2.164;2023-03-05T10:19:33;18.88;;;12.77;;
47153;SDS011;32907;41.412;2.164;2023-03-05T10:27:54;22.33;;;15.05;;
47153;SDS011;32907;41.412;2.164;2023-03-05T10:30:44;19.20;;;14.80;;
47153;SDS011;32907;41.412;2.164;2023-03-05T10:33:42;20.38;;;14.07;;
47153;SDS011;32907;41.412;2.164;2023-03-05T10:36:28;17.23;;;12.98;;
47153;SDS011;32907;41.412;2.164;2023-03-05T10:42:17;16.05;;;12.20;;
47153;SDS011;32907;41.412;2.164;2023-03-05T10:45:23;14.13;;;10.90;;
47153;SDS011;32907;41.412;2.164;2023-03-05T10:48:01;14.55;;;11.00;;
47153;SDS011;32907;41.412;2.164;2023-03-05T10:50:45;16.10;;;11.45;;
47153;SDS011;32907;41.412;2.164;2023-03-05T10:53:31;14.85;;;11.27;;
47153;SDS011;32907;41.412;2.164;2023-03-05T10:56:14;16.92;;;11.18;;
47153;SDS011;32907;41.412;2.164;2023-03-05T10:58:50;18.52;;;12.00;;
47153;SDS011;32907;41.412;2.164;2023-03-05T11:01:27;19.15;;;13.60;;
47153;SDS011;32907;41.412;2.164;2023-03-05T11:04:25;21.55;;;14.65;;
47153;SDS011;32907;41.412;2.164;2023-03-05T11:06:58;24.75;;;14.40;;
47153;SDS011;32907;41.412;2.164;2023-03-05T11:12:26;17.63;;;12.43;;
47153;SDS011;32907;41.412;2.164;2023-03-05T11:15:09;17.40;;;12.55;;
47153;SDS011;32907;41.412;2.164;2023-03-05T11:18:26;18.88;;;12.98;;
47153;SDS011;32907;41.412;2.164;2023-03-05T11:20:48;19.75;;;14.25;;
47153;SDS011;32907;41.412;2.164;2023-03-05T11:28:34;18.02;;;13.43;;
47153;SDS011;32907;41.412;2.164;2023-03-05T11:36:37;22.50;;;15.60;;
47153;SDS011;32907;41.412;2.164;2023-03-05T11:41:39;19.65;;;14.90;;
47153;SDS011;32907;41.412;2.164;2023-03-05T11:44:25;27.80;;;17.85;;
47153;SDS011;32907;41.412;2.164;2023-03-05T11:50:04;27.80;;;17.67;;
47153;SDS011;32907;41.412;2.164;2023-03-05T11:52:53;28.83;;;21.70;;
47153;SDS011;32907;41.412;2.164;2023-03-05T11:55:33;30.98;;;23.33;;
47153;SDS011;32907;41.412;2.164;2023-03-05T12:00:59;28.77;;;23.42;;
47153;SDS011;32907;41.412;2.164;2023-03-05T12:03:34;30.75;;;22.40;;
47153;SDS011;32907;41.412;2.164;2023-03-05T12:08:48;28.50;;;19.92;;
47153;SDS011;32907;41.412;2.164;2023-03-05T12:11:29;29.50;;;20.02;;
47153;SDS011;32907;41.412;2.164;2023-03-05T12:14:09;27.00;;;19.08;;
47153;SDS011;32907;41.412;2.164;2023-03-05T12:19:45;22.80;;;16.13;;
47153;SDS011;32907;41.412;2.164;2023-03-05T12:22:21;21.93;;;15.90;;
47153;SDS011;32907;41.412;2.164;2023-03-05T12:24:50;21.95;;;15.88;;
47153;SDS011;32907;41.412;2.164;2023-03-05T12:27:34;22.52;;;16.23;;
47153;SDS011;32907;41.412;2.164;2023-03-05T12:30:03;20.60;;;15.30;;
47153;SDS011;32907;41.412;2.164;2023-03-05T12:35:03;34.85;;;24.48;;
47153;SDS011;32907;41.412;2.164;2023-03-05T12:45:34;26.75;;;19.23;;
47153;SDS011;32907;41.412;2.164;2023-03-05T12:53:24;29.17;;;20.13;;
47153;SDS011;32907;41.412;2.164;2023-03-05T12:56:04;26.75;;;19.80;;
47153;SDS011;32907;41.412;2.164;2023-03-05T12:58:49;30.27;;;21.17;;
47153;SDS011;32907;41.412;2.164;2023-03-05T13:01:34;23.13;;;16.95;;
47153;SDS011;32907;41.412;2.164;2023-03-05T13:04:16;30.98;;;20.20;;
47153;SDS011;32907;41.412;2.164;2023-03-05T13:07:03;29.85;;;20.30;;
47153;SDS011;32907;41.412;2.164;2023-03-05T13:09:33;25.05;;;17.50;;
47153;SDS011;32907;41.412;2.164;2023-03-05T13:12:03;23.80;;;16.85;;
47153;SDS011;32907;41.412;2.164;2023-03-05T13:14:41;23.88;;;17.25;;
47153;SDS011;32907;41.412;2.164;2023-03-05T13:28:27;18.35;;;13.38;;
47153;SDS011;32907;41.412;2.164;2023-03-05T13:33:32;19.70;;;13.43;;
47153;SDS011;32907;41.412;2.164;2023-03-05T13:36:02;19.88;;;13.95;;
47153;SDS011;32907;41.412;2.164;2023-03-05T13:38:35;18.13;;;13.07;;
47153;SDS011;32907;41.412;2.164;2023-03-05T13:43:41;21.35;;;15.20;;
47153;SDS011;32907;41.412;2.164;2023-03-05T13:46:10;26.17;;;17.90;;
47153;SDS011;32907;41.412;2.164;2023-03-05T13:48:39;23.63;;;15.93;;
47153;SDS011;32907;41.412;2.164;2023-03-05T13:51:07;23.90;;;16.10;;
47153;SDS011;32907;41.412;2.164;2023-03-05T13:53:36;24.65;;;15.38;;
47153;SDS011;32907;41.412;2.164;2023-03-05T13:56:05;21.60;;;15.52;;
47153;SDS011;32907;41.412;2.164;2023-03-05T13:58:50;21.15;;;13.50;;
47153;SDS011;32907;41.412;2.164;2023-03-05T14:01:25;20.73;;;12.60;;
47153;SDS011;32907;41.412;2.164;2023-03-05T14:04:21;20.48;;;13.55;;
47153;SDS011;32907;41.412;2.164;2023-03-05T14:06:54;17.67;;;12.23;;
47153;SDS011;32907;41.412;2.164;2023-03-05T14:12:05;16.27;;;12.30;;
47153;SDS011;32907;41.412;2.164;2023-03-05T14:14:56;14.93;;;11.45;;
47153;SDS011;32907;41.412;2.164;2023-03-05T14:22:42;17.50;;;11.00;;
47153;SDS011;32907;41.412;2.164;2023-03-05T14:25:28;16.85;;;12.00;;
47153;SDS011;32907;41.412;2.164;2023-03-05T14:30:49;20.55;;;11.63;;
47153;SDS011;32907;41.412;2.164;2023-03-05T14:33:22;15.40;;;11.32;;
47153;SDS011;32907;41.412;2.164;2023-03-05T14:35:53;17.05;;;11.85;;
47153;SDS011;32907;41.412;2.164;2023-03-05T14:38:25;15.75;;;11.45;;
47153;SDS011;32907;41.412;2.164;2023-03-05T14:40:56;15.88;;;12.63;;
47153;SDS011;32907;41.412;2.164;2023-03-05T14:43:24;13.85;;;11.15;;
47153;SDS011;32907;41.412;2.164;2023-03-05T14:45:52;15.30;;;11.27;;
47153;SDS011;32907;41.412;2.164;2023-03-05T14:48:20;19.38;;;11.98;;
47153;SDS011;32907;41.412;2.164;2023-03-05T14:50:49;16.30;;;11.45;;
47153;SDS011;32907;41.412;2.164;2023-03-05T14:53:23;16.58;;;12.18;;
47153;SDS011;32907;41.412;2.164;2023-03-05T14:55:54;16.60;;;12.07;;
47153;SDS011;32907;41.412;2.164;2023-03-05T14:58:27;18.70;;;13.32;;
47153;SDS011;32907;41.412;2.164;2023-03-05T15:00:58;14.05;;;11.43;;
47153;SDS011;32907;41.412;2.164;2023-03-05T15:03:26;14.38;;;11.88;;
47153;SDS011;32907;41.412;2.164;2023-03-05T15:05:55;15.07;;;11.88;;
47153;SDS011;32907;41.412;2.164;2023-03-05T15:08:26;14.50;;;10.70;;
47153;SDS011;32907;41.412;2.164;2023-03-05T15:10:56;14.18;;;11.30;;
47153;SDS011;32907;41.412;2.164;2023-03-05T15:13:25;15.10;;;11.43;;
47153;SDS011;32907;41.412;2.164;2023-03-05T15:15:53;13.35;;;10.15;;
47153;SDS011;32907;41.412;2.164;2023-03-05T15:18:21;14.88;;;10.65;;
47153;SDS011;32907;41.412;2.164;2023-03-05T15:20:50;15.75;;;10.13;;
47153;SDS011;32907;41.412;2.164;2023-03-05T15:23:19;14.13;;;11.80;;
47153;SDS011;32907;41.412;2.164;2023-03-05T15:25:47;14.65;;;10.90;;
47153;SDS011;32907;41.412;2.164;2023-03-05T15:28:16;14.98;;;10.32;;
47153;SDS011;32907;41.412;2.164;2023-03-05T15:30:45;13.65;;;10.60;;
47153;SDS011;32907;41.412;2.164;2023-03-05T15:33:14;11.75;;;9.50;;
47153;SDS011;32907;41.412;2.164;2023-03-05T15:35:44;13.60;;;10.60;;
47153;SDS011;32907;41.412;2.164;2023-03-05T15:38:12;12.35;;;10.35;;
47153;SDS011;32907;41.412;2.164;2023-03-05T15:40:41;13.70;;;10.93;;
47153;SDS011;32907;41.412;2.164;2023-03-05T15:43:10;15.82;;;11.48;;
47153;SDS011;32907;41.412;2.164;2023-03-05T15:45:38;15.70;;;11.30;;
47153;SDS011;32907;41.412;2.164;2023-03-05T15:48:06;13.70;;;11.45;;
47153;SDS011;32907;41.412;2.164;2023-03-05T15:50:34;15.40;;;12.23;;
47153;SDS011;32907;41.412;2.164;2023-03-05T15:53:02;15.27;;;10.93;;
47153;SDS011;32907;41.412;2.164;2023-03-05T15:55:30;13.77;;;10.88;;
47153;SDS011;32907;41.412;2.164;2023-03-05T15:57:57;12.55;;;10.27;;
47153;SDS011;32907;41.412;2.164;2023-03-05T16:00:27;11.77;;;10.07;;
47153;SDS011;32907;41.412;2.164;2023-03-05T16:02:56;10.85;;;8.88;;
47153;SDS011;32907;41.412;2.164;2023-03-05T16:05:24;11.32;;;8.65;;
47153;SDS011;32907;41.412;2.164;2023-03-05T16:07:53;13.82;;;8.57;;
47153;SDS011;32907;41.412;2.164;2023-03-05T16:10:23;12.05;;;8.65;;
47153;SDS011;32907;41.412;2.164;2023-03-05T16:12:54;10.15;;;8.38;;
47153;SDS011;32907;41.412;2.164;2023-03-05T16:15:28;10.85;;;8.13;;
47153;SDS011;32907;41.412;2.164;2023-03-05T16:17:59;10.02;;;7.93;;